Albany, Nebraska
Current Conditions -  °F | °C
As of 10:15 PM on Wednesday 26 Nov 2014 (Local Time) from KHDE Reporting Station
Scattered Clouds Scattered Clouds  
Wind Chill: 22°   Ceiling: Unl
Heat Index: 22°   Visibility: 10mi
Dew Point: 15°   Wind: 3mph
Humidity: 76%   Direction: 50°NE
Pressure: 30.4"   Gusts: NA
Location:  40.2849°N, 99.6171°W
Report Text: KHDE 270415Z AUTO 05003KT 10SM SCT100 SCT120 M06/M09 A3040 RMK AO2 T10571094
Loading
Personal Weather Stations






























Interactive Weather Map New forecast layout! Learn more

10-Day Weather Forecast

Advertisements
Track Severe Weather on mobile